Time;durP1;ratioP1;P1;durP2;ratioP2;P2;SDS_P1;SDS_P2;PMS_P1;PMS_P2;Temp;Humidity;BMP_temperature;BMP_pressure;BME280_temperature;BME280_humidity;BME280_pressure;Samples;Min_cycle;Max_cycle;Signal;HPM_P1;HPM_P2
2023/08/14 00:01:24;;;;;;;1.80;1.70;;;;;;;;;;5095526;28;20040;-26
2023/08/14 00:03:51;;;;;;;1.65;1.55;;;;;;;;;;5094965;28;20048;-33
2023/08/14 00:06:17;;;;;;;2.58;1.67;;;;;;;;;;5095445;28;20408;-32
2023/08/14 00:08:43;;;;;;;1.88;1.77;;;;;;;;;;5094531;28;20111;-30
2023/08/14 00:11:09;;;;;;;1.50;1.40;;;;;;;;;;5094201;28;20024;-29
2023/08/14 00:13:52;;;;;;;1.80;1.70;;;;;;;;;;5095040;28;20030;-31
2023/08/14 00:16:18;;;;;;;2.00;1.90;;;;;;;;;;5095357;28;20099;-31
2023/08/14 00:18:45;;;;;;;1.80;1.70;;;;;;;;;;5095295;28;20070;-32
2023/08/14 00:21:11;;;;;;;1.73;1.63;;;;;;;;;;5095283;28;20393;-31
2023/08/14 00:23:37;;;;;;;1.80;1.70;;;;;;;;;;5094932;28;20024;-31
2023/08/14 00:26:03;;;;;;;1.63;1.52;;;;;;;;;;5095236;28;20034;-31
2023/08/14 00:28:29;;;;;;;1.50;1.40;;;;;;;;;;5095025;28;20526;-30
2023/08/14 00:30:55;;;;;;;1.90;1.80;;;;;;;;;;5094872;28;20036;-32
2023/08/14 00:33:21;;;;;;;1.58;1.48;;;;;;;;;;5094864;28;20028;-31
2023/08/14 00:35:47;;;;;;;1.42;1.40;;;;;;;;;;5094812;28;20024;-29
2023/08/14 00:38:14;;;;;;;1.70;1.60;;;;;;;;;;5093814;28;20115;-28
2023/08/14 00:40:40;;;;;;;1.35;1.35;;;;;;;;;;5095002;28;20439;-30
2023/08/14 00:43:06;;;;;;;1.83;1.73;;;;;;;;;;5094783;28;20039;-28
2023/08/14 00:45:32;;;;;;;1.52;1.50;;;;;;;;;;5094700;28;20073;-30
2023/08/14 00:47:58;;;;;;;1.48;1.33;;;;;;;;;;5094695;28;20090;-28
2023/08/14 00:50:25;;;;;;;1.38;1.38;;;;;;;;;;5094848;28;20053;-32
2023/08/14 00:52:52;;;;;;;1.38;1.38;;;;;;;;;;5094694;28;20032;-32
2023/08/14 00:55:21;;;;;;;1.70;1.60;;;;;;;;;;5094596;28;20028;-31
2023/08/14 00:57:47;;;;;;;1.67;1.58;;;;;;;;;;5095948;28;20488;-31
2023/08/14 01:00:14;;;;;;;1.60;1.50;;;;;;;;;;5098991;28;20020;-27
2023/08/14 01:02:41;;;;;;;1.70;1.60;;;;;;;;;;5098856;28;20023;-30
2023/08/14 01:05:07;;;;;;;1.48;1.40;;;;;;;;;;5098515;28;20044;-30
2023/08/14 01:07:33;;;;;;;1.38;1.33;;;;;;;;;;5098582;28;20024;-29
2023/08/14 01:10:02;;;;;;;1.40;1.30;;;;;;;;;;5098453;28;20024;-31
2023/08/14 01:12:50;;;;;;;1.10;1.10;;;;;;;;;;5098373;28;20569;-31
2023/08/14 01:15:20;;;;;;;1.50;1.40;;;;;;;;;;5099008;28;20016;-31
2023/08/14 01:17:53;;;;;;;1.23;1.23;;;;;;;;;;5098367;28;20028;-30
2023/08/14 01:20:21;;;;;;;1.63;1.52;;;;;;;;;;5098689;28;20058;-31
2023/08/14 01:23:22;;;;;;;1.45;1.40;;;;;;;;;;5098386;28;20075;-31
2023/08/14 01:25:49;;;;;;;1.40;1.40;;;;;;;;;;5036668;28;20049;-29
2023/08/14 01:28:15;;;;;;;1.67;1.58;;;;;;;;;;5086243;28;20386;-30
2023/08/14 01:30:41;;;;;;;1.70;1.60;;;;;;;;;;5098125;28;20066;-32
2023/08/14 01:33:08;;;;;;;1.20;1.20;;;;;;;;;;5098179;28;20024;-32
2023/08/14 01:35:46;;;;;;;1.42;1.42;;;;;;;;;;5098069;28;20035;-32
2023/08/14 01:38:22;;;;;;;1.70;1.60;;;;;;;;;;5098340;28;20032;-31
2023/08/14 01:40:51;;;;;;;1.13;1.10;;;;;;;;;;5098514;28;20028;-32
2023/08/14 01:43:25;;;;;;;1.20;1.20;;;;;;;;;;5097842;28;20044;-32
2023/08/14 01:45:53;;;;;;;1.65;1.55;;;;;;;;;;5098200;28;20051;-30
2023/08/14 01:48:23;;;;;;;1.13;1.13;;;;;;;;;;5098068;28;20371;-31
2023/08/14 01:50:50;;;;;;;1.27;1.27;;;;;;;;;;5097979;28;20032;-30
2023/08/14 01:53:17;;;;;;;1.27;1.27;;;;;;;;;;5097627;28;20100;-29
2023/08/14 01:55:43;;;;;;;1.52;1.42;;;;;;;;;;5097750;28;20077;-30
2023/08/14 01:58:09;;;;;;;1.27;1.25;;;;;;;;;;5097671;28;20383;-31
2023/08/14 02:00:37;;;;;;;1.20;1.20;;;;;;;;;;5097838;28;20051;-32
2023/08/14 02:03:03;;;;;;;1.50;1.40;;;;;;;;;;5097465;28;20030;-30
2023/08/14 02:05:29;;;;;;;1.63;1.52;;;;;;;;;;5097814;28;20031;-32
2023/08/14 02:07:55;;;;;;;1.27;1.27;;;;;;;;;;5097292;28;20028;-29
2023/08/14 02:10:22;;;;;;;1.70;1.60;;;;;;;;;;5097242;28;20047;-31
2023/08/14 02:12:48;;;;;;;1.17;1.13;;;;;;;;;;5097442;28;20039;-33
2023/08/14 02:15:14;;;;;;;1.35;1.25;;;;;;;;;;5097311;28;20466;-30
2023/08/14 02:17:40;;;;;;;1.45;1.35;;;;;;;;;;5096690;28;20024;-30
2023/08/14 02:20:08;;;;;;;1.67;1.58;;;;;;;;;;5097514;28;20024;-31
2023/08/14 02:22:34;;;;;;;1.58;1.48;;;;;;;;;;5097396;28;20355;-30
2023/08/14 02:25:00;;;;;;;1.05;1.05;;;;;;;;;;5097120;28;20020;-32
2023/08/14 02:27:26;;;;;;;1.40;1.40;;;;;;;;;;5097612;28;20038;-31
2023/08/14 02:29:52;;;;;;;1.35;1.33;;;;;;;;;;5097471;28;20343;-29
2023/08/14 02:32:18;;;;;;;1.20;1.17;;;;;;;;;;5097167;28;20032;-29
2023/08/14 02:34:44;;;;;;;1.20;1.20;;;;;;;;;;5096954;28;20078;-27
2023/08/14 02:37:11;;;;;;;1.23;1.23;;;;;;;;;;5096898;28;20050;-27
2023/08/14 02:39:37;;;;;;;1.30;1.20;;;;;;;;;;5096834;28;20020;-32
2023/08/14 02:42:03;;;;;;;1.98;1.88;;;;;;;;;;5096754;28;20063;-32
2023/08/14 02:44:30;;;;;;;1.20;1.20;;;;;;;;;;5097030;28;20024;-31
2023/08/14 02:46:57;;;;;;;1.27;1.27;;;;;;;;;;5096683;28;20024;-30
2023/08/14 02:49:25;;;;;;;1.20;1.20;;;;;;;;;;5096854;28;20130;-28
2023/08/14 02:51:51;;;;;;;1.20;1.20;;;;;;;;;;5096545;28;20050;-30
2023/08/14 02:54:17;;;;;;;1.50;1.40;;;;;;;;;;5096602;28;20038;-29
2023/08/14 02:56:43;;;;;;;1.30;1.20;;;;;;;;;;5096759;28;20024;-31
2023/08/14 02:59:09;;;;;;;1.20;1.20;;;;;;;;;;5096454;28;20030;-29
2023/08/14 03:01:36;;;;;;;1.30;1.30;;;;;;;;;;5096366;28;20036;-30
2023/08/14 03:04:02;;;;;;;1.40;1.30;;;;;;;;;;5096266;28;20035;-28
2023/08/14 03:06:31;;;;;;;1.58;1.50;;;;;;;;;;5096284;28;20067;-30
2023/08/14 03:08:57;;;;;;;1.20;1.17;;;;;;;;;;5096126;28;20027;-31
2023/08/14 03:11:23;;;;;;;1.20;1.20;;;;;;;;;;5096205;28;20047;-28
2023/08/14 03:13:49;;;;;;;1.50;1.40;;;;;;;;;;5096064;28;20049;-30
2023/08/14 03:16:15;;;;;;;1.33;1.30;;;;;;;;;;5096673;28;20028;-30
2023/08/14 03:18:42;;;;;;;1.80;1.70;;;;;;;;;;5096100;28;20135;-30
2023/08/14 03:21:08;;;;;;;1.50;1.40;;;;;;;;;;5095651;28;20359;-30
2023/08/14 03:23:35;;;;;;;1.17;1.17;;;;;;;;;;5096451;28;20016;-31
2023/08/14 03:26:02;;;;;;;1.08;1.00;;;;;;;;;;5096509;28;20016;-29
2023/08/14 03:28:28;;;;;;;1.13;1.13;;;;;;;;;;5096149;28;20036;-31
2023/08/14 03:30:54;;;;;;;1.17;1.17;;;;;;;;;;5095731;28;20035;-31
2023/08/14 03:33:20;;;;;;;1.30;1.20;;;;;;;;;;5095981;28;20099;-32
2023/08/14 03:35:46;;;;;;;1.50;1.40;;;;;;;;;;5095740;28;20028;-31
2023/08/14 03:38:12;;;;;;;1.23;1.23;;;;;;;;;;5095979;28;20397;-31
2023/08/14 03:40:38;;;;;;;1.08;1.08;;;;;;;;;;5095670;28;20041;-31
2023/08/14 03:43:04;;;;;;;1.23;1.23;;;;;;;;;;5095575;28;20032;-31
2023/08/14 03:45:31;;;;;;;1.05;1.05;;;;;;;;;;5095847;28;20035;-30
2023/08/14 03:47:57;;;;;;;1.08;1.08;;;;;;;;;;5095552;28;20023;-30
2023/08/14 03:50:23;;;;;;;1.30;1.30;;;;;;;;;;5095950;28;20477;-30
2023/08/14 03:52:49;;;;;;;1.10;1.10;;;;;;;;;;5095389;28;20031;-28
2023/08/14 03:55:15;;;;;;;1.10;1.10;;;;;;;;;;5095656;28;20047;-32
2023/08/14 03:57:41;;;;;;;1.20;1.10;;;;;;;;;;5095836;28;20450;-30
2023/08/14 04:00:08;;;;;;;1.10;1.10;;;;;;;;;;5095524;28;20043;-29
2023/08/14 04:02:34;;;;;;;1.10;1.10;;;;;;;;;;5095138;28;20347;-32
2023/08/14 04:05:00;;;;;;;1.40;1.30;;;;;;;;;;5094966;28;20048;-29
2023/08/14 04:07:26;;;;;;;1.00;1.00;;;;;;;;;;5094975;28;20105;-28
2023/08/14 04:09:52;;;;;;;1.10;1.10;;;;;;;;;;5094957;28;20443;-30
2023/08/14 04:12:19;;;;;;;1.05;1.05;;;;;;;;;;5094830;28;20069;-33
2023/08/14 04:14:46;;;;;;;1.20;1.10;;;;;;;;;;5094771;28;20050;-29
2023/08/14 04:17:12;;;;;;;1.30;1.30;;;;;;;;;;5095037;28;20044;-31
2023/08/14 04:19:38;;;;;;;1.40;1.30;;;;;;;;;;5094659;28;20032;-30
2023/08/14 04:22:04;;;;;;;1.95;1.42;;;;;;;;;;5093902;28;20451;-33
2023/08/14 04:24:30;;;;;;;0.98;0.98;;;;;;;;;;5094588;28;20054;-29
2023/08/14 04:26:56;;;;;;;1.20;1.10;;;;;;;;;;5094466;28;20060;-29
2023/08/14 04:29:22;;;;;;;1.80;1.10;;;;;;;;;;5094805;28;20349;-31
2023/08/14 04:31:49;;;;;;;1.60;1.20;;;;;;;;;;5094399;28;20096;-29
2023/08/14 04:34:15;;;;;;;5.03;1.20;;;;;;;;;;5094360;28;20363;-32
2023/08/14 04:36:41;;;;;;;1.55;1.42;;;;;;;;;;5094682;28;20016;-30
2023/08/14 04:39:07;;;;;;;1.85;1.00;;;;;;;;;;5094435;28;20153;-31
2023/08/14 04:41:34;;;;;;;1.33;1.23;;;;;;;;;;5094351;28;20392;-31
2023/08/14 04:44:00;;;;;;;3.10;1.13;;;;;;;;;;5094224;28;20023;-32
2023/08/14 04:46:29;;;;;;;1.10;1.10;;;;;;;;;;5094290;28;20039;-33
2023/08/14 04:48:56;;;;;;;2.28;1.13;;;;;;;;;;5094453;28;20449;-31
2023/08/14 04:51:22;;;;;;;1.50;1.10;;;;;;;;;;5094827;28;20109;-30
2023/08/14 04:53:48;;;;;;;1.50;1.40;;;;;;;;;;5094493;28;20095;-32
2023/08/14 04:56:14;;;;;;;1.48;1.38;;;;;;;;;;5094384;28;20034;-28
2023/08/14 04:58:40;;;;;;;2.60;2.10;;;;;;;;;;5094620;28;20101;-31
2023/08/14 05:01:06;;;;;;;1.55;1.20;;;;;;;;;;5094260;28;20039;-33
2023/08/14 05:03:32;;;;;;;1.30;1.20;;;;;;;;;;5093101;28;20467;-31
2023/08/14 05:05:58;;;;;;;1.10;1.00;;;;;;;;;;5094467;28;20096;-32
2023/08/14 05:08:24;;;;;;;1.45;1.35;;;;;;;;;;5094114;28;20443;-30
2023/08/14 05:10:51;;;;;;;1.00;1.00;;;;;;;;;;5094300;28;20139;-30
2023/08/14 05:13:18;;;;;;;1.25;1.15;;;;;;;;;;5094051;28;20036;-30
2023/08/14 05:15:44;;;;;;;2.78;1.10;;;;;;;;;;5094383;28;20020;-30
2023/08/14 05:18:10;;;;;;;2.35;1.65;;;;;;;;;;5094885;28;20137;-30
2023/08/14 05:20:36;;;;;;;2.97;1.20;;;;;;;;;;5094616;28;20028;-31
2023/08/14 05:23:02;;;;;;;1.40;1.30;;;;;;;;;;5094035;28;20107;-28
2023/08/14 05:25:28;;;;;;;1.00;1.00;;;;;;;;;;5094303;28;20024;-33
2023/08/14 05:27:55;;;;;;;1.00;1.00;;;;;;;;;;5094266;28;20028;-29
2023/08/14 05:30:21;;;;;;;2.83;1.45;;;;;;;;;;5094052;28;20366;-31
2023/08/14 05:32:47;;;;;;;1.95;1.40;;;;;;;;;;5093862;28;20404;-32
2023/08/14 05:35:16;;;;;;;3.38;1.23;;;;;;;;;;5094049;28;20100;-30
2023/08/14 05:37:42;;;;;;;3.95;1.65;;;;;;;;;;5094182;28;20339;-29
2023/08/14 05:40:10;;;;;;;4.35;1.50;;;;;;;;;;5093780;28;20416;-31
2023/08/14 05:42:36;;;;;;;4.07;1.08;;;;;;;;;;5094208;28;20020;-27
2023/08/14 05:45:03;;;;;;;1.73;1.02;;;;;;;;;;5096964;28;20028;-29
2023/08/14 05:47:29;;;;;;;6.10;1.38;;;;;;;;;;5097488;28;20043;-32
2023/08/14 05:49:55;;;;;;;2.80;1.73;;;;;;;;;;5097495;28;20024;-28
2023/08/14 05:52:21;;;;;;;11.52;1.92;;;;;;;;;;5097680;28;20031;-31
2023/08/14 05:54:47;;;;;;;2.10;1.10;;;;;;;;;;5097587;28;20316;-30
2023/08/14 05:57:13;;;;;;;14.20;1.83;;;;;;;;;;5097480;28;20020;-30
2023/08/14 05:59:39;;;;;;;6.57;1.63;;;;;;;;;;5097266;28;20024;-33
2023/08/14 06:04:40;;;;;;;8.10;1.63;;;;;;;;;;5075683;28;20094;-28
2023/08/14 06:07:07;;;;;;;11.48;2.97;;;;;;;;;;5076919;28;20044;-28
2023/08/14 06:09:33;;;;;;;5.93;1.70;;;;;;;;;;5076490;28;20024;-27
2023/08/14 06:11:59;;;;;;;6.20;1.70;;;;;;;;;;5076532;28;20446;-25
2023/08/14 06:14:26;;;;;;;8.02;1.90;;;;;;;;;;5059013;28;20039;-24
2023/08/14 06:16:52;;;;;;;7.70;1.65;;;;;;;;;;5076666;28;20025;-25
2023/08/14 06:19:18;;;;;;;4.35;1.55;;;;;;;;;;5076570;28;20029;-27
2023/08/14 06:21:44;;;;;;;2.38;1.55;;;;;;;;;;5076458;28;20186;-27
2023/08/14 06:24:10;;;;;;;4.43;1.55;;;;;;;;;;5076739;28;20419;-28
2023/08/14 06:26:36;;;;;;;4.68;2.05;;;;;;;;;;5076468;28;20021;-26
2023/08/14 06:29:03;;;;;;;6.50;1.70;;;;;;;;;;5076917;28;20036;-24
2023/08/14 06:31:29;;;;;;;1.70;1.60;;;;;;;;;;5058679;28;20024;-24
2023/08/14 06:33:55;;;;;;;8.80;1.67;;;;;;;;;;5076519;28;20105;-27
2023/08/14 06:36:21;;;;;;;4.30;1.40;;;;;;;;;;5076329;28;20071;-26
2023/08/14 06:38:47;;;;;;;13.60;2.00;;;;;;;;;;5076586;28;20024;-27
2023/08/14 06:41:13;;;;;;;10.48;1.70;;;;;;;;;;5076448;28;20133;-24
2023/08/14 06:43:40;;;;;;;4.57;1.15;;;;;;;;;;5058449;28;20413;-29
2023/08/14 06:46:06;;;;;;;6.30;1.55;;;;;;;;;;5075902;28;20074;-24
2023/08/14 06:48:32;;;;;;;3.00;1.60;;;;;;;;;;5075929;28;20036;-29
2023/08/14 06:50:59;;;;;;;11.27;1.42;;;;;;;;;;5058251;28;20028;-28
2023/08/14 06:53:25;;;;;;;4.00;1.20;;;;;;;;;;5076127;28;20028;-25
2023/08/14 06:55:51;;;;;;;4.68;1.42;;;;;;;;;;5075057;28;20021;-26
2023/08/14 06:58:17;;;;;;;1.90;1.27;;;;;;;;;;5058942;28;20029;-27
2023/08/14 07:00:43;;;;;;;4.65;1.50;;;;;;;;;;5076171;28;20025;-24
2023/08/14 07:03:10;;;;;;;4.57;1.60;;;;;;;;;;5075818;28;20052;-24
2023/08/14 07:05:36;;;;;;;4.78;1.10;;;;;;;;;;5075931;28;20075;-25
2023/08/14 07:08:02;;;;;;;6.93;1.60;;;;;;;;;;5076558;28;20081;-27
2023/08/14 07:10:28;;;;;;;6.38;1.42;;;;;;;;;;5075895;28;20039;-25
2023/08/14 07:12:54;;;;;;;3.67;1.83;;;;;;;;;;5075651;28;20104;-24
2023/08/14 07:15:20;;;;;;;12.55;2.13;;;;;;;;;;5076065;28;20460;-24
2023/08/14 07:17:47;;;;;;;8.05;2.50;;;;;;;;;;5057788;28;20020;-27
2023/08/14 07:20:13;;;;;;;9.68;1.88;;;;;;;;;;5075307;28;20024;-28
2023/08/14 07:22:39;;;;;;;5.35;3.03;;;;;;;;;;5075496;28;20028;-25
2023/08/14 07:25:06;;;;;;;9.50;2.00;;;;;;;;;;5075666;28;20083;-27
2023/08/14 07:27:32;;;;;;;9.48;1.92;;;;;;;;;;5075598;28;20024;-25
2023/08/14 07:29:58;;;;;;;3.83;1.58;;;;;;;;;;5075247;28;20028;-24
2023/08/14 07:32:24;;;;;;;4.43;2.40;;;;;;;;;;5057783;28;20059;-26
2023/08/14 07:34:50;;;;;;;5.65;1.65;;;;;;;;;;5057972;28;20451;-28
2023/08/14 07:37:17;;;;;;;5.45;1.45;;;;;;;;;;5057675;28;20047;-28
2023/08/14 07:39:43;;;;;;;8.40;1.52;;;;;;;;;;5057834;28;20025;-27
2023/08/14 07:42:09;;;;;;;15.20;2.03;;;;;;;;;;5075253;28;20105;-25
2023/08/14 07:44:35;;;;;;;7.32;1.63;;;;;;;;;;5075311;28;20033;-23
2023/08/14 07:47:01;;;;;;;5.05;1.63;;;;;;;;;;5057476;28;20344;-26
2023/08/14 07:49:27;;;;;;;7.25;1.95;;;;;;;;;;5075220;28;20462;-34
2023/08/14 07:51:53;;;;;;;2.67;1.27;;;;;;;;;;5075226;28;20356;-25
2023/08/14 07:54:19;;;;;;;2.55;1.55;;;;;;;;;;5075366;28;20448;-24
2023/08/14 07:56:46;;;;;;;2.50;0.95;;;;;;;;;;5075608;28;20383;-24
2023/08/14 07:59:12;;;;;;;5.28;1.33;;;;;;;;;;5074859;28;20103;-26
2023/08/14 08:01:38;;;;;;;5.22;1.25;;;;;;;;;;5075136;28;20454;-29
2023/08/14 08:04:05;;;;;;;7.75;1.75;;;;;;;;;;5074652;28;20060;-27
2023/08/14 08:06:31;;;;;;;8.65;1.92;;;;;;;;;;5074791;28;20055;-24
2023/08/14 08:08:57;;;;;;;1.92;1.70;;;;;;;;;;5074649;28;20440;-27
2023/08/14 08:11:24;;;;;;;2.38;1.23;;;;;;;;;;5074954;28;20028;-25
2023/08/14 08:13:50;;;;;;;2.38;1.35;;;;;;;;;;5074781;28;20056;-31
2023/08/14 08:16:16;;;;;;;5.72;1.65;;;;;;;;;;5074659;28;20032;-27
2023/08/14 08:18:42;;;;;;;5.97;2.17;;;;;;;;;;5057013;28;20066;-28
2023/08/14 08:21:09;;;;;;;11.73;1.67;;;;;;;;;;5074572;28;20443;-28
2023/08/14 08:23:35;;;;;;;5.20;1.75;;;;;;;;;;5074627;28;20417;-24
2023/08/14 08:26:01;;;;;;;5.97;1.48;;;;;;;;;;5056892;28;20021;-27
2023/08/14 08:28:27;;;;;;;4.03;1.50;;;;;;;;;;5074534;28;20094;-23
2023/08/14 08:30:54;;;;;;;15.57;1.95;;;;;;;;;;5056653;28;20029;-25
2023/08/14 08:33:20;;;;;;;7.40;1.67;;;;;;;;;;5074499;28;20363;-25
2023/08/14 08:35:46;;;;;;;5.25;1.60;;;;;;;;;;5056654;28;20027;-27
2023/08/14 08:38:12;;;;;;;9.05;1.92;;;;;;;;;;5056543;28;20052;-24
2023/08/14 08:40:41;;;;;;;9.95;2.22;;;;;;;;;;5074489;28;20040;-26
2023/08/14 08:43:08;;;;;;;6.55;1.83;;;;;;;;;;5074124;28;20085;-25
2023/08/14 08:45:37;;;;;;;4.65;1.80;;;;;;;;;;5074089;28;20054;-28
2023/08/14 08:48:06;;;;;;;1.95;1.75;;;;;;;;;;5074106;28;20024;-23
2023/08/14 08:50:32;;;;;;;6.30;1.70;;;;;;;;;;5074252;28;20324;-25
2023/08/14 08:52:59;;;;;;;4.95;2.10;;;;;;;;;;5056315;28;20028;-27
2023/08/14 08:55:25;;;;;;;2.85;1.60;;;;;;;;;;5074123;28;20355;-24
2023/08/14 08:57:52;;;;;;;9.18;2.13;;;;;;;;;;5056323;28;20025;-24
2023/08/14 09:00:19;;;;;;;2.30;1.50;;;;;;;;;;5074533;28;20069;-23
2023/08/14 09:02:46;;;;;;;2.80;1.63;;;;;;;;;;5074134;28;20411;-23
2023/08/14 09:05:12;;;;;;;6.70;1.95;;;;;;;;;;5074010;28;20035;-24
2023/08/14 09:07:38;;;;;;;7.10;1.92;;;;;;;;;;5073917;28;20149;-25
2023/08/14 09:10:05;;;;;;;3.67;2.20;;;;;;;;;;5073855;28;20413;-27
2023/08/14 09:12:31;;;;;;;5.00;1.88;;;;;;;;;;5074111;28;20082;-28
2023/08/14 09:15:05;;;;;;;2.95;1.65;;;;;;;;;;5056099;28;20020;-28
2023/08/14 09:17:32;;;;;;;5.82;1.70;;;;;;;;;;5073844;28;20436;-26
2023/08/14 09:19:58;;;;;;;4.10;1.58;;;;;;;;;;5077003;28;20040;-27
2023/08/14 09:22:27;;;;;;;7.97;1.67;;;;;;;;;;5077514;28;20478;-25
2023/08/14 09:24:54;;;;;;;4.85;1.73;;;;;;;;;;5077762;28;20028;-25
2023/08/14 09:27:21;;;;;;;7.30;2.10;;;;;;;;;;5077703;28;20033;-36
2023/08/14 09:29:47;;;;;;;4.63;1.80;;;;;;;;;;5059884;28;20097;-25
2023/08/14 09:32:13;;;;;;;1.75;1.58;;;;;;;;;;5059854;28;20021;-28
2023/08/14 09:34:39;;;;;;;4.20;1.60;;;;;;;;;;5077462;28;20025;-26
2023/08/14 09:37:06;;;;;;;6.57;1.67;;;;;;;;;;5077504;28;20099;-26
2023/08/14 09:39:32;;;;;;;8.32;1.83;;;;;;;;;;5077592;28;20021;-26
2023/08/14 09:41:59;;;;;;;7.03;3.92;;;;;;;;;;5077308;28;20028;-23
2023/08/14 09:44:26;;;;;;;18.17;2.83;;;;;;;;;;5059600;28;20043;-26
2023/08/14 09:46:54;;;;;;;10.68;1.70;;;;;;;;;;5077341;28;20094;-28
2023/08/14 09:49:20;;;;;;;14.27;3.00;;;;;;;;;;5077167;28;20020;-25
2023/08/14 09:51:59;;;;;;;12.10;3.47;;;;;;;;;;5077057;28;20021;-25
2023/08/14 09:54:30;;;;;;;7.40;2.08;;;;;;;;;;5077220;28;20039;-23
2023/08/14 09:56:59;;;;;;;8.57;2.80;;;;;;;;;;5059620;28;20024;-23
2023/08/14 09:59:25;;;;;;;4.15;1.80;;;;;;;;;;5077400;28;20036;-27
2023/08/14 10:01:53;;;;;;;8.48;2.13;;;;;;;;;;5059534;28;20033;-25
2023/08/14 10:04:20;;;;;;;8.50;2.00;;;;;;;;;;5077090;28;20119;-27
2023/08/14 10:06:47;;;;;;;10.05;2.20;;;;;;;;;;5076841;28;20028;-27
2023/08/14 10:09:13;;;;;;;7.95;2.22;;;;;;;;;;5077470;28;20035;-25
2023/08/14 10:11:40;;;;;;;6.18;1.60;;;;;;;;;;5076616;28;20473;-23
2023/08/14 10:14:06;;;;;;;6.05;2.60;;;;;;;;;;5076858;28;20039;-25
2023/08/14 10:16:38;;;;;;;4.30;2.28;;;;;;;;;;5077095;28;20032;-26
2023/08/14 10:19:08;;;;;;;6.82;2.10;;;;;;;;;;5077079;28;20026;-27
2023/08/14 10:21:35;;;;;;;7.20;2.33;;;;;;;;;;5076750;28;20328;-26
2023/08/14 10:24:04;;;;;;;11.95;2.20;;;;;;;;;;5059001;28;20035;-24
2023/08/14 10:26:32;;;;;;;7.03;2.58;;;;;;;;;;5076616;28;20112;-27
2023/08/14 10:28:59;;;;;;;5.95;2.05;;;;;;;;;;5076771;28;20016;-27
2023/08/14 10:31:29;;;;;;;3.63;2.17;;;;;;;;;;5076618;28;20104;-28
2023/08/14 10:33:56;;;;;;;4.23;1.83;;;;;;;;;;5076633;28;20080;-25
2023/08/14 10:36:22;;;;;;;7.47;2.35;;;;;;;;;;5076547;28;20017;-25
2023/08/14 10:38:50;;;;;;;9.40;2.10;;;;;;;;;;5076625;28;20032;-25
2023/08/14 10:41:19;;;;;;;6.40;2.50;;;;;;;;;;5076783;28;20402;-24
2023/08/14 10:43:51;;;;;;;7.72;2.40;;;;;;;;;;5076443;28;20516;-27
2023/08/14 10:46:17;;;;;;;10.25;2.50;;;;;;;;;;5076277;28;20035;-29
2023/08/14 10:48:44;;;;;;;3.53;1.58;;;;;;;;;;5076389;28;20388;-27
2023/08/14 10:51:13;;;;;;;7.68;2.22;;;;;;;;;;5077102;28;20107;-27
2023/08/14 10:53:41;;;;;;;6.70;2.40;;;;;;;;;;5076138;28;20017;-27
2023/08/14 10:56:07;;;;;;;5.45;2.28;;;;;;;;;;5076067;28;20370;-25
2023/08/14 10:58:35;;;;;;;4.63;2.00;;;;;;;;;;5076012;28;20101;-27
2023/08/14 11:01:11;;;;;;;5.80;2.10;;;;;;;;;;5075992;28;20050;-25
2023/08/14 11:03:56;;;;;;;3.00;1.75;;;;;;;;;;5075679;28;20446;-28
2023/08/14 11:06:26;;;;;;;4.68;2.00;;;;;;;;;;5075836;28;20028;-25
2023/08/14 11:09:18;;;;;;;12.18;2.17;;;;;;;;;;5058103;28;20340;-25
2023/08/14 11:11:44;;;;;;;2.55;1.83;;;;;;;;;;5054919;28;20371;-26
2023/08/14 11:14:11;;;;;;;5.18;2.15;;;;;;;;;;5076116;28;20078;-26
2023/08/14 11:16:37;;;;;;;4.15;1.98;;;;;;;;;;5075666;28;20080;-24
2023/08/14 11:19:04;;;;;;;2.75;1.70;;;;;;;;;;5075519;28;20031;-23
2023/08/14 11:21:34;;;;;;;3.58;1.98;;;;;;;;;;5075599;28;20024;-24
2023/08/14 11:24:01;;;;;;;6.75;2.30;;;;;;;;;;5075591;28;20031;-24
2023/08/14 11:26:30;;;;;;;6.85;2.33;;;;;;;;;;5075892;28;20406;-27
2023/08/14 11:28:56;;;;;;;9.23;2.17;;;;;;;;;;5075355;28;20046;-25
2023/08/14 11:31:22;;;;;;;5.82;2.15;;;;;;;;;;5076270;28;20390;-32
2023/08/14 11:33:49;;;;;;;2.88;1.85;;;;;;;;;;5075330;28;20024;-28
2023/08/14 11:36:15;;;;;;;4.80;1.90;;;;;;;;;;5075227;28;20356;-29
2023/08/14 11:38:41;;;;;;;6.40;2.30;;;;;;;;;;5075272;28;20020;-23
2023/08/14 11:41:07;;;;;;;6.68;2.47;;;;;;;;;;5075019;28;20017;-24
2023/08/14 11:43:36;;;;;;;3.17;2.28;;;;;;;;;;5075171;28;20178;-28
2023/08/14 11:46:03;;;;;;;9.00;3.50;;;;;;;;;;5075845;28;20054;-24
2023/08/14 11:48:29;;;;;;;5.50;2.20;;;;;;;;;;5075175;28;20047;-24
2023/08/14 11:50:55;;;;;;;10.05;2.00;;;;;;;;;;5075120;28;20032;-27
2023/08/14 11:53:21;;;;;;;6.53;2.47;;;;;;;;;;5075180;28;20035;-28
2023/08/14 11:55:47;;;;;;;7.25;1.95;;;;;;;;;;5075089;28;20019;-28
2023/08/14 11:58:14;;;;;;;6.15;2.47;;;;;;;;;;5074946;28;20021;-25
2023/08/14 12:00:41;;;;;;;7.63;2.03;;;;;;;;;;5074940;28;20024;-25
2023/08/14 12:03:07;;;;;;;6.90;2.40;;;;;;;;;;5053517;28;20045;-24
2023/08/14 12:05:33;;;;;;;3.08;1.85;;;;;;;;;;5054745;28;20025;-27
2023/08/14 12:08:00;;;;;;;4.72;1.88;;;;;;;;;;5055188;28;20402;-25
2023/08/14 12:10:31;;;;;;;5.47;2.08;;;;;;;;;;5054746;28;20036;-24
2023/08/14 12:12:57;;;;;;;7.38;1.80;;;;;;;;;;5054981;28;20095;-27
2023/08/14 12:15:23;;;;;;;7.72;2.20;;;;;;;;;;5054840;28;20028;-26
2023/08/14 12:17:49;;;;;;;6.07;1.85;;;;;;;;;;5054705;28;20104;-25
2023/08/14 12:20:16;;;;;;;9.25;2.70;;;;;;;;;;5054771;28;20109;-24
2023/08/14 12:22:42;;;;;;;6.45;2.20;;;;;;;;;;5054512;28;20024;-27
2023/08/14 12:25:09;;;;;;;7.38;1.88;;;;;;;;;;5054546;28;20096;-27
2023/08/14 12:27:35;;;;;;;5.85;1.98;;;;;;;;;;5054303;28;20386;-28
2023/08/14 12:30:02;;;;;;;7.18;1.92;;;;;;;;;;5053473;28;20025;-28
2023/08/14 12:32:28;;;;;;;4.82;2.63;;;;;;;;;;5054570;28;20025;-26
2023/08/14 12:34:54;;;;;;;5.55;2.03;;;;;;;;;;5053433;28;20116;-26
2023/08/14 12:37:21;;;;;;;2.63;2.20;;;;;;;;;;5054496;28;20032;-23
2023/08/14 12:39:55;;;;;;;5.57;2.13;;;;;;;;;;5053318;28;20025;-24
2023/08/14 12:42:21;;;;;;;6.00;1.90;;;;;;;;;;5054423;28;20021;-26
2023/08/14 12:44:48;;;;;;;4.53;2.80;;;;;;;;;;5054459;28;20476;-26
2023/08/14 12:47:14;;;;;;;3.88;1.80;;;;;;;;;;5053484;28;20040;-23
2023/08/14 12:49:40;;;;;;;5.78;2.20;;;;;;;;;;5054807;28;20021;-25
2023/08/14 12:52:06;;;;;;;4.55;3.28;;;;;;;;;;5054276;28;20025;-27
2023/08/14 12:54:32;;;;;;;3.67;2.28;;;;;;;;;;5056056;28;20040;-27
2023/08/14 12:56:59;;;;;;;4.03;2.00;;;;;;;;;;5058478;28;20025;-27
2023/08/14 12:59:25;;;;;;;5.28;2.33;;;;;;;;;;5058348;28;20162;-24
2023/08/14 13:01:51;;;;;;;5.03;2.45;;;;;;;;;;5057323;28;20036;-23
2023/08/14 13:04:17;;;;;;;4.32;2.00;;;;;;;;;;5075057;28;20048;-27
2023/08/14 13:06:43;;;;;;;6.05;2.20;;;;;;;;;;5060595;28;20036;-29
2023/08/14 13:09:12;;;;;;;5.22;1.90;;;;;;;;;;5078438;28;20351;-23
2023/08/14 13:11:38;;;;;;;4.93;2.78;;;;;;;;;;5078360;28;20141;-24
2023/08/14 13:14:04;;;;;;;7.57;3.20;;;;;;;;;;5078048;28;20441;-23
2023/08/14 13:16:31;;;;;;;8.52;2.20;;;;;;;;;;5078057;28;20021;-27
2023/08/14 13:18:57;;;;;;;7.07;3.22;;;;;;;;;;5078035;28;20032;-27
2023/08/14 13:21:24;;;;;;;5.82;2.65;;;;;;;;;;5077983;28;20059;-25
2023/08/14 13:23:50;;;;;;;2.17;1.95;;;;;;;;;;5077813;28;20082;-25
2023/08/14 13:26:16;;;;;;;5.53;1.95;;;;;;;;;;5077900;28;20020;-23
2023/08/14 13:28:43;;;;;;;6.53;2.00;;;;;;;;;;5078203;28;20025;-23
2023/08/14 13:31:09;;;;;;;5.18;2.28;;;;;;;;;;5078085;28;20028;-22
2023/08/14 13:33:36;;;;;;;2.78;2.30;;;;;;;;;;5060408;28;20039;-28
2023/08/14 13:36:02;;;;;;;6.60;1.83;;;;;;;;;;5077730;28;20024;-28
2023/08/14 13:38:29;;;;;;;7.07;2.15;;;;;;;;;;5077686;28;20454;-27
2023/08/14 13:40:55;;;;;;;6.97;1.92;;;;;;;;;;5077912;28;20056;-26
2023/08/14 13:43:21;;;;;;;4.40;2.40;;;;;;;;;;5077605;28;20501;-27
2023/08/14 13:45:48;;;;;;;10.73;2.40;;;;;;;;;;5077600;28;20028;-25
2023/08/14 13:48:14;;;;;;;11.68;3.00;;;;;;;;;;5077592;28;20032;-24
2023/08/14 13:50:40;;;;;;;11.25;3.25;;;;;;;;;;5077388;28;20111;-24
2023/08/14 13:53:06;;;;;;;8.63;2.45;;;;;;;;;;5077692;28;20059;-25
2023/08/14 13:55:34;;;;;;;9.13;2.45;;;;;;;;;;5077651;28;20017;-27
2023/08/14 13:58:00;;;;;;;10.10;2.40;;;;;;;;;;5077401;28;20397;-28
2023/08/14 14:00:27;;;;;;;9.20;2.22;;;;;;;;;;5077297;28;20107;-27
2023/08/14 14:02:53;;;;;;;9.05;2.22;;;;;;;;;;5076918;28;20052;-27
2023/08/14 14:05:20;;;;;;;15.43;2.90;;;;;;;;;;5076922;28;20039;-27
2023/08/14 14:07:46;;;;;;;5.32;2.38;;;;;;;;;;5059886;28;20040;-25
2023/08/14 14:10:12;;;;;;;6.20;2.55;;;;;;;;;;5077180;28;20328;-27
2023/08/14 14:12:38;;;;;;;6.85;3.28;;;;;;;;;;5077037;28;20352;-24
2023/08/14 14:15:05;;;;;;;2.42;1.90;;;;;;;;;;5059318;28;20046;-24
2023/08/14 14:17:31;;;;;;;12.90;2.85;;;;;;;;;;5077120;28;20025;-26
2023/08/14 14:19:57;;;;;;;5.15;2.28;;;;;;;;;;5077341;28;20086;-28
2023/08/14 14:22:23;;;;;;;11.27;2.58;;;;;;;;;;5059129;28;20029;-27
2023/08/14 14:24:49;;;;;;;6.53;2.20;;;;;;;;;;5076882;28;20032;-26
2023/08/14 14:27:15;;;;;;;4.57;2.00;;;;;;;;;;5059269;28;20055;-23
2023/08/14 14:29:43;;;;;;;7.07;2.53;;;;;;;;;;5076669;28;20024;-25
2023/08/14 14:32:09;;;;;;;7.28;2.72;;;;;;;;;;5076615;28;20021;-23
2023/08/14 14:34:35;;;;;;;7.30;2.20;;;;;;;;;;5076634;28;20020;-24
2023/08/14 14:37:01;;;;;;;9.55;2.90;;;;;;;;;;5076859;28;20142;-27
2023/08/14 14:39:27;;;;;;;5.85;2.13;;;;;;;;;;5076534;28;20021;-26
2023/08/14 14:41:53;;;;;;;6.05;2.05;;;;;;;;;;5077009;28;20104;-26
2023/08/14 14:44:20;;;;;;;11.82;2.55;;;;;;;;;;5076620;28;20109;-23